sensor_id;sensor_type;location;lat;lon;timestamp;pressure;altitude;pressure_sealevel;temperature;humidity
51807;BME280;37865;51.304;9.536;2023-05-08T00:00:20;100545.50;;;10.27;90.44
51807;BME280;37865;51.304;9.536;2023-05-08T00:02:46;100555.56;;;10.27;91.18
51807;BME280;37865;51.304;9.536;2023-05-08T00:05:11;100544.06;;;10.25;91.16
51807;BME280;37865;51.304;9.536;2023-05-08T00:07:37;100548.69;;;10.24;91.27
51807;BME280;37865;51.304;9.536;2023-05-08T00:10:06;100543.47;;;10.23;91.09
51807;BME280;37865;51.304;9.536;2023-05-08T00:12:31;100550.00;;;10.22;90.96
51807;BME280;37865;51.304;9.536;2023-05-08T00:14:57;100540.16;;;10.21;91.07
51807;BME280;37865;51.304;9.536;2023-05-08T00:17:22;100541.25;;;10.20;90.97
51807;BME280;37865;51.304;9.536;2023-05-08T00:19:48;100543.13;;;10.19;91.03
51807;BME280;37865;51.304;9.536;2023-05-08T00:22:13;100543.13;;;10.19;91.04
51807;BME280;37865;51.304;9.536;2023-05-08T00:24:38;100543.38;;;10.18;91.36
51807;BME280;37865;51.304;9.536;2023-05-08T00:27:04;100535.41;;;10.16;91.33
51807;BME280;37865;51.304;9.536;2023-05-08T00:29:29;100540.03;;;10.16;91.08
51807;BME280;37865;51.304;9.536;2023-05-08T00:31:55;100538.13;;;10.16;90.94
51807;BME280;37865;51.304;9.536;2023-05-08T00:34:20;100533.75;;;10.15;90.50
51807;BME280;37865;51.304;9.536;2023-05-08T00:36:45;100543.81;;;10.15;90.84
51807;BME280;37865;51.304;9.536;2023-05-08T00:39:11;100544.06;;;10.13;91.22
51807;BME280;37865;51.304;9.536;2023-05-08T00:41:37;100541.34;;;10.13;90.67
51807;BME280;37865;51.304;9.536;2023-05-08T00:44:02;100537.19;;;10.11;90.92
51807;BME280;37865;51.304;9.536;2023-05-08T00:46:27;100541.78;;;10.10;91.29
51807;BME280;37865;51.304;9.536;2023-05-08T00:48:53;100540.09;;;10.09;91.27
51807;BME280;37865;51.304;9.536;2023-05-08T00:51:18;100534.06;;;10.07;91.28
51807;BME280;37865;51.304;9.536;2023-05-08T00:53:44;100535.94;;;10.07;90.85
51807;BME280;37865;51.304;9.536;2023-05-08T00:56:13;100530.50;;;10.07;91.05
51807;BME280;37865;51.304;9.536;2023-05-08T00:58:39;100537.00;;;10.06;90.75
51807;BME280;37865;51.304;9.536;2023-05-08T01:01:05;100534.75;;;10.03;91.15
51807;BME280;37865;51.304;9.536;2023-05-08T01:03:32;100541.25;;;10.02;91.29
51807;BME280;37865;51.304;9.536;2023-05-08T01:06:00;100545.28;;;9.99;91.88
51807;BME280;37865;51.304;9.536;2023-05-08T01:08:26;100539.22;;;9.97;91.66
51807;BME280;37865;51.304;9.536;2023-05-08T01:19:19;100545.72;;;9.85;91.95
51807;BME280;37865;51.304;9.536;2023-05-08T01:21:57;100539.88;;;9.81;92.23
51807;BME280;37865;51.304;9.536;2023-05-08T01:33:32;100542.81;;;9.68;93.44
51807;BME280;37865;51.304;9.536;2023-05-08T01:36:02;100550.38;;;9.66;93.36
51807;BME280;37865;51.304;9.536;2023-05-08T01:41:06;100545.81;;;9.60;93.50
51807;BME280;37865;51.304;9.536;2023-05-08T01:44:09;100547.13;;;9.57;94.27
51807;BME280;37865;51.304;9.536;2023-05-08T01:46:37;100540.50;;;9.53;94.31
51807;BME280;37865;51.304;9.536;2023-05-08T01:49:11;100536.94;;;9.53;94.12
51807;BME280;37865;51.304;9.536;2023-05-08T01:51:47;100539.06;;;9.51;94.25
51807;BME280;37865;51.304;9.536;2023-05-08T01:54:20;100543.06;;;9.48;94.65
51807;BME280;37865;51.304;9.536;2023-05-08T01:56:47;100542.44;;;9.46;94.70
51807;BME280;37865;51.304;9.536;2023-05-08T01:59:16;100546.22;;;9.45;94.28
51807;BME280;37865;51.304;9.536;2023-05-08T02:01:47;100538.28;;;9.44;94.43
51807;BME280;37865;51.304;9.536;2023-05-08T02:04:14;100543.72;;;9.44;94.31
51807;BME280;37865;51.304;9.536;2023-05-08T02:06:40;100547.28;;;9.44;94.71
51807;BME280;37865;51.304;9.536;2023-05-08T02:09:08;100542.44;;;9.46;94.71
51807;BME280;37865;51.304;9.536;2023-05-08T02:11:36;100552.06;;;9.49;94.66
51807;BME280;37865;51.304;9.536;2023-05-08T02:14:03;100547.22;;;9.51;94.90
51807;BME280;37865;51.304;9.536;2023-05-08T02:16:30;100543.41;;;9.52;94.59
51807;BME280;37865;51.304;9.536;2023-05-08T02:18:59;100546.75;;;9.54;94.34
51807;BME280;37865;51.304;9.536;2023-05-08T02:21:26;100545.09;;;9.53;94.04
51807;BME280;37865;51.304;9.536;2023-05-08T02:23:53;100538.56;;;9.54;93.90
51807;BME280;37865;51.304;9.536;2023-05-08T02:26:21;100548.66;;;9.53;94.30
51807;BME280;37865;51.304;9.536;2023-05-08T02:28:48;100545.09;;;9.53;94.37
51807;BME280;37865;51.304;9.536;2023-05-08T02:31:15;100548.06;;;9.51;94.51
51807;BME280;37865;51.304;9.536;2023-05-08T02:33:42;100548.25;;;9.50;94.50
51807;BME280;37865;51.304;9.536;2023-05-08T02:36:10;100545.19;;;9.46;95.23
51807;BME280;37865;51.304;9.536;2023-05-08T02:38:38;100556.31;;;9.45;95.09
51807;BME280;37865;51.304;9.536;2023-05-08T02:41:06;100549.19;;;9.44;95.16
51807;BME280;37865;51.304;9.536;2023-05-08T02:43:33;100551.91;;;9.44;94.92
51807;BME280;37865;51.304;9.536;2023-05-08T02:46:09;100546.69;;;9.42;95.51
51807;BME280;37865;51.304;9.536;2023-05-08T02:51:27;100555.91;;;9.41;95.56
51807;BME280;37865;51.304;9.536;2023-05-08T03:00:15;100552.75;;;9.44;95.67
51807;BME280;37865;51.304;9.536;2023-05-08T03:05:34;100550.38;;;9.48;95.42
51807;BME280;37865;51.304;9.536;2023-05-08T03:08:06;100552.44;;;9.52;95.70
51807;BME280;37865;51.304;9.536;2023-05-08T03:10:33;100559.31;;;9.55;95.10
51807;BME280;37865;51.304;9.536;2023-05-08T03:13:01;100555.91;;;9.59;94.44
51807;BME280;37865;51.304;9.536;2023-05-08T03:15:37;100557.09;;;9.63;94.24
51807;BME280;37865;51.304;9.536;2023-05-08T03:18:08;100548.25;;;9.68;93.92
51807;BME280;37865;51.304;9.536;2023-05-08T03:20:38;100549.44;;;9.72;93.73
51807;BME280;37865;51.304;9.536;2023-05-08T03:23:05;100552.19;;;9.72;93.87
51807;BME280;37865;51.304;9.536;2023-05-08T03:25:33;100544.81;;;9.72;93.89
51807;BME280;37865;51.304;9.536;2023-05-08T03:28:00;100545.66;;;9.73;93.79
51807;BME280;37865;51.304;9.536;2023-05-08T03:30:30;100540.22;;;9.73;93.55
51807;BME280;37865;51.304;9.536;2023-05-08T03:32:57;100544.00;;;9.72;93.67
51807;BME280;37865;51.304;9.536;2023-05-08T03:35:23;100548.84;;;9.70;93.34
51807;BME280;37865;51.304;9.536;2023-05-08T03:37:51;100542.81;;;9.68;93.25
51807;BME280;37865;51.304;9.536;2023-05-08T03:40:17;100545.97;;;9.65;93.06
51807;BME280;37865;51.304;9.536;2023-05-08T03:42:43;100544.53;;;9.62;93.15
51807;BME280;37865;51.304;9.536;2023-05-08T03:45:09;100542.28;;;9.59;93.55
51807;BME280;37865;51.304;9.536;2023-05-08T03:47:35;100543.56;;;9.57;93.76
51807;BME280;37865;51.304;9.536;2023-05-08T03:50:01;100536.69;;;9.54;93.77
51807;BME280;37865;51.304;9.536;2023-05-08T03:52:27;100536.31;;;9.51;93.79
51807;BME280;37865;51.304;9.536;2023-05-08T03:54:53;100541.97;;;9.49;93.99
51807;BME280;37865;51.304;9.536;2023-05-08T03:57:18;100545.19;;;9.46;94.19
51807;BME280;37865;51.304;9.536;2023-05-08T03:59:50;100543.72;;;9.44;94.07
51807;BME280;37865;51.304;9.536;2023-05-08T04:02:29;100553.19;;;9.41;94.54
51807;BME280;37865;51.304;9.536;2023-05-08T04:05:04;100550.69;;;9.40;94.81
51807;BME280;37865;51.304;9.536;2023-05-08T04:07:37;100538.97;;;9.39;94.79
51807;BME280;37865;51.304;9.536;2023-05-08T04:10:21;100549.66;;;9.41;95.11
51807;BME280;37865;51.304;9.536;2023-05-08T04:15:37;100548.94;;;9.45;94.52
51807;BME280;37865;51.304;9.536;2023-05-08T04:18:03;100554.78;;;9.49;94.27
51807;BME280;37865;51.304;9.536;2023-05-08T04:20:30;100546.38;;;9.50;94.74
51807;BME280;37865;51.304;9.536;2023-05-08T04:22:57;100552.19;;;9.54;94.62
51807;BME280;37865;51.304;9.536;2023-05-08T04:25:23;100552.59;;;9.57;94.26
51807;BME280;37865;51.304;9.536;2023-05-08T04:27:50;100552.09;;;9.60;94.40
51807;BME280;37865;51.304;9.536;2023-05-08T04:30:17;100558.16;;;9.62;94.27
51807;BME280;37865;51.304;9.536;2023-05-08T04:32:43;100558.75;;;9.64;93.96
51807;BME280;37865;51.304;9.536;2023-05-08T04:35:09;100556.63;;;9.66;94.39
51807;BME280;37865;51.304;9.536;2023-05-08T04:37:34;100552.63;;;9.69;94.43
51807;BME280;37865;51.304;9.536;2023-05-08T04:40:00;100560.56;;;9.70;93.71
51807;BME280;37865;51.304;9.536;2023-05-08T04:42:26;100563.88;;;9.72;93.73
51807;BME280;37865;51.304;9.536;2023-05-08T04:44:52;100565.78;;;9.72;93.70
51807;BME280;37865;51.304;9.536;2023-05-08T04:47:18;100575.16;;;9.76;93.41
51807;BME280;37865;51.304;9.536;2023-05-08T04:49:43;100570.06;;;9.80;93.40
51807;BME280;37865;51.304;9.536;2023-05-08T04:52:09;100564.41;;;9.81;92.93
51807;BME280;37865;51.304;9.536;2023-05-08T04:54:34;100571.03;;;9.85;92.25
51807;BME280;37865;51.304;9.536;2023-05-08T04:57:00;100574.38;;;9.87;92.27
51807;BME280;37865;51.304;9.536;2023-05-08T04:59:25;100573.06;;;9.90;92.06
51807;BME280;37865;51.304;9.536;2023-05-08T05:01:50;100578.06;;;9.93;91.68
51807;BME280;37865;51.304;9.536;2023-05-08T05:04:16;100576.56;;;9.97;91.41
51807;BME280;37865;51.304;9.536;2023-05-08T05:06:41;100580.00;;;10.04;91.35
51807;BME280;37865;51.304;9.536;2023-05-08T05:09:07;100578.88;;;10.11;91.29
51807;BME280;37865;51.304;9.536;2023-05-08T05:11:32;100584.47;;;10.16;90.43
51807;BME280;37865;51.304;9.536;2023-05-08T05:13:58;100587.94;;;10.23;90.18
51807;BME280;37865;51.304;9.536;2023-05-08T05:16:23;100586.53;;;10.32;89.84
51807;BME280;37865;51.304;9.536;2023-05-08T05:18:49;100585.38;;;10.40;89.93
51807;BME280;37865;51.304;9.536;2023-05-08T05:21:14;100586.91;;;10.47;89.24
51807;BME280;37865;51.304;9.536;2023-05-08T05:23:39;100585.25;;;10.58;88.36
51807;BME280;37865;51.304;9.536;2023-05-08T05:26:05;100586.34;;;10.69;87.77
51807;BME280;37865;51.304;9.536;2023-05-08T05:28:30;100581.13;;;10.79;87.26
51807;BME280;37865;51.304;9.536;2023-05-08T05:30:56;100588.16;;;10.86;86.37
51807;BME280;37865;51.304;9.536;2023-05-08T05:33:21;100583.53;;;10.98;86.31
51807;BME280;37865;51.304;9.536;2023-05-08T05:35:47;100585.28;;;11.16;85.71
51807;BME280;37865;51.304;9.536;2023-05-08T05:38:12;100586.47;;;11.31;84.96
51807;BME280;37865;51.304;9.536;2023-05-08T05:40:37;100582.66;;;11.44;84.58
51807;BME280;37865;51.304;9.536;2023-05-08T05:43:03;100588.91;;;11.56;84.31
51807;BME280;37865;51.304;9.536;2023-05-08T05:45:28;100589.97;;;11.67;83.60
51807;BME280;37865;51.304;9.536;2023-05-08T05:47:53;100584.38;;;11.73;82.91
51807;BME280;37865;51.304;9.536;2023-05-08T05:50:19;100589.13;;;11.78;82.11
51807;BME280;37865;51.304;9.536;2023-05-08T05:52:45;100595.00;;;11.86;82.11
51807;BME280;37865;51.304;9.536;2023-05-08T05:55:11;100598.97;;;12.07;81.14
51807;BME280;37865;51.304;9.536;2023-05-08T05:57:36;100596.44;;;12.17;80.31
51807;BME280;37865;51.304;9.536;2023-05-08T06:00:03;100593.97;;;12.32;80.36
51807;BME280;37865;51.304;9.536;2023-05-08T06:02:29;100594.25;;;12.47;79.46
51807;BME280;37865;51.304;9.536;2023-05-08T06:04:54;100591.53;;;12.64;78.83
51807;BME280;37865;51.304;9.536;2023-05-08T06:07:19;100591.78;;;12.79;78.23
51807;BME280;37865;51.304;9.536;2023-05-08T06:09:47;100593.34;;;12.91;77.38
51807;BME280;37865;51.304;9.536;2023-05-08T06:12:15;100584.47;;;13.01;77.05
51807;BME280;37865;51.304;9.536;2023-05-08T06:14:40;100588.19;;;13.28;76.56
51807;BME280;37865;51.304;9.536;2023-05-08T06:17:05;100582.56;;;13.56;75.57
51807;BME280;37865;51.304;9.536;2023-05-08T06:19:31;100583.75;;;13.65;74.49
51807;BME280;37865;51.304;9.536;2023-05-08T06:21:57;100589.50;;;13.64;74.46
51807;BME280;37865;51.304;9.536;2023-05-08T06:24:22;100582.69;;;13.66;74.16
51807;BME280;37865;51.304;9.536;2023-05-08T06:26:47;100588.47;;;13.70;73.49
51807;BME280;37865;51.304;9.536;2023-05-08T06:29:13;100586.56;;;13.70;73.00
51807;BME280;37865;51.304;9.536;2023-05-08T06:31:38;100583.56;;;13.72;72.69
51807;BME280;37865;51.304;9.536;2023-05-08T06:34:04;100583.28;;;13.73;72.74
51807;BME280;37865;51.304;9.536;2023-05-08T06:36:29;100583.38;;;13.79;72.33
51807;BME280;37865;51.304;9.536;2023-05-08T06:38:56;100582.66;;;13.88;72.14
51807;BME280;37865;51.304;9.536;2023-05-08T06:41:21;100579.22;;;13.98;71.78
51807;BME280;37865;51.304;9.536;2023-05-08T06:43:47;100579.91;;;14.15;71.34
51807;BME280;37865;51.304;9.536;2023-05-08T06:46:12;100579.41;;;14.39;70.48
51807;BME280;37865;51.304;9.536;2023-05-08T06:48:37;100581.84;;;14.68;68.84
51807;BME280;37865;51.304;9.536;2023-05-08T06:51:03;100580.41;;;14.97;67.98
51807;BME280;37865;51.304;9.536;2023-05-08T06:53:29;100586.03;;;15.17;67.13
51807;BME280;37865;51.304;9.536;2023-05-08T06:55:54;100575.09;;;15.27;66.60
51807;BME280;37865;51.304;9.536;2023-05-08T06:58:21;100575.19;;;15.42;66.51
51807;BME280;37865;51.304;9.536;2023-05-08T07:00:47;100578.81;;;15.43;65.42
51807;BME280;37865;51.304;9.536;2023-05-08T07:03:12;100581.25;;;15.39;65.93
51807;BME280;37865;51.304;9.536;2023-05-08T07:05:37;100578.59;;;15.49;65.14
51807;BME280;37865;51.304;9.536;2023-05-08T07:08:03;100587.19;;;15.73;64.63
51807;BME280;37865;51.304;9.536;2023-05-08T07:10:28;100576.53;;;15.86;63.92
51807;BME280;37865;51.304;9.536;2023-05-08T07:12:54;100576.59;;;16.17;63.27
51807;BME280;37865;51.304;9.536;2023-05-08T07:15:20;100573.34;;;16.40;62.34
51807;BME280;37865;51.304;9.536;2023-05-08T07:17:46;100575.06;;;16.61;62.10
51807;BME280;37865;51.304;9.536;2023-05-08T07:20:11;100570.09;;;16.83;61.57
51807;BME280;37865;51.304;9.536;2023-05-08T07:22:37;100573.94;;;16.87;60.35
51807;BME280;37865;51.304;9.536;2023-05-08T07:25:02;100569.25;;;17.03;59.95
51807;BME280;37865;51.304;9.536;2023-05-08T07:27:28;100573.06;;;17.27;59.25
51807;BME280;37865;51.304;9.536;2023-05-08T07:29:54;100566.13;;;17.39;58.79
51807;BME280;37865;51.304;9.536;2023-05-08T07:32:21;100565.00;;;17.65;58.66
51807;BME280;37865;51.304;9.536;2023-05-08T07:34:47;100566.75;;;18.05;57.85
51807;BME280;37865;51.304;9.536;2023-05-08T07:37:12;100570.19;;;18.26;56.83
51807;BME280;37865;51.304;9.536;2023-05-08T07:39:38;100567.03;;;18.42;55.75
51807;BME280;37865;51.304;9.536;2023-05-08T07:42:03;100566.78;;;18.39;55.91
51807;BME280;37865;51.304;9.536;2023-05-08T07:44:30;100565.94;;;18.49;55.74
51807;BME280;37865;51.304;9.536;2023-05-08T07:46:56;100559.41;;;18.68;55.29
51807;BME280;37865;51.304;9.536;2023-05-08T07:49:22;100560.84;;;18.61;54.74
51807;BME280;37865;51.304;9.536;2023-05-08T07:51:47;100562.19;;;18.24;54.98
51807;BME280;37865;51.304;9.536;2023-05-08T07:54:13;100563.75;;;17.97;55.72
51807;BME280;37865;51.304;9.536;2023-05-08T07:56:38;100554.88;;;18.00;56.00
51807;BME280;37865;51.304;9.536;2023-05-08T07:59:03;100564.41;;;18.22;55.61
51807;BME280;37865;51.304;9.536;2023-05-08T08:01:29;100561.00;;;18.40;54.89
51807;BME280;37865;51.304;9.536;2023-05-08T08:03:54;100563.47;;;18.42;54.65
51807;BME280;37865;51.304;9.536;2023-05-08T08:06:19;100558.56;;;18.29;54.64
51807;BME280;37865;51.304;9.536;2023-05-08T08:08:45;100562.72;;;18.26;54.78
51807;BME280;37865;51.304;9.536;2023-05-08T08:11:10;100562.25;;;18.14;54.94
51807;BME280;37865;51.304;9.536;2023-05-08T08:13:35;100558.47;;;18.00;55.24
51807;BME280;37865;51.304;9.536;2023-05-08T08:16:01;100567.97;;;17.79;55.80
51807;BME280;37865;51.304;9.536;2023-05-08T08:18:28;100566.03;;;17.75;56.03
51807;BME280;37865;51.304;9.536;2023-05-08T08:20:54;100563.38;;;17.49;56.95
51807;BME280;37865;51.304;9.536;2023-05-08T08:23:19;100565.84;;;17.46;57.76
51807;BME280;37865;51.304;9.536;2023-05-08T08:25:44;100562.84;;;17.52;57.14
51807;BME280;37865;51.304;9.536;2023-05-08T08:28:10;100568.28;;;17.67;57.32
51807;BME280;37865;51.304;9.536;2023-05-08T08:30:35;100560.47;;;17.90;57.07
51807;BME280;37865;51.304;9.536;2023-05-08T08:33:00;100567.84;;;17.99;56.57
51807;BME280;37865;51.304;9.536;2023-05-08T08:35:27;100571.53;;;17.80;56.52
51807;BME280;37865;51.304;9.536;2023-05-08T08:37:54;100572.13;;;17.72;57.24
51807;BME280;37865;51.304;9.536;2023-05-08T08:40:20;100565.78;;;17.66;57.36
51807;BME280;37865;51.304;9.536;2023-05-08T08:42:45;100571.06;;;17.67;57.48
51807;BME280;37865;51.304;9.536;2023-05-08T08:45:11;100580.13;;;17.73;57.20
51807;BME280;37865;51.304;9.536;2023-05-08T08:47:38;100586.97;;;17.81;57.55
51807;BME280;37865;51.304;9.536;2023-05-08T08:50:07;100580.84;;;17.94;56.69
51807;BME280;37865;51.304;9.536;2023-05-08T08:52:46;100578.50;;;18.21;56.60
51807;BME280;37865;51.304;9.536;2023-05-08T08:55:15;100582.97;;;18.61;55.08
51807;BME280;37865;51.304;9.536;2023-05-08T08:57:53;100577.75;;;18.88;54.12
51807;BME280;37865;51.304;9.536;2023-05-08T09:00:20;100577.44;;;18.94;53.96
51807;BME280;37865;51.304;9.536;2023-05-08T09:02:46;100575.41;;;19.05;54.20
51807;BME280;37865;51.304;9.536;2023-05-08T09:05:12;100580.63;;;19.06;53.52
51807;BME280;37865;51.304;9.536;2023-05-08T09:07:37;100581.78;;;19.00;53.81
51807;BME280;37865;51.304;9.536;2023-05-08T09:10:05;100577.75;;;18.88;54.10
51807;BME280;37865;51.304;9.536;2023-05-08T09:12:31;100584.00;;;18.70;54.73
51807;BME280;37865;51.304;9.536;2023-05-08T09:14:56;100579.13;;;18.57;55.16
51807;BME280;37865;51.304;9.536;2023-05-08T09:17:22;100579.19;;;18.47;55.15
51807;BME280;37865;51.304;9.536;2023-05-08T09:19:48;100582.66;;;18.62;55.26
51807;BME280;37865;51.304;9.536;2023-05-08T09:22:14;100581.78;;;19.00;54.32
51807;BME280;37865;51.304;9.536;2023-05-08T09:24:57;100574.13;;;19.50;53.63
51807;BME280;37865;51.304;9.536;2023-05-08T09:27:24;100577.94;;;19.77;52.46
51807;BME280;37865;51.304;9.536;2023-05-08T09:30:06;100570.50;;;19.96;52.47
51807;BME280;37865;51.304;9.536;2023-05-08T09:32:37;100559.84;;;20.27;51.19
51807;BME280;37865;51.304;9.536;2023-05-08T09:35:03;100569.75;;;20.10;51.10
51807;BME280;37865;51.304;9.536;2023-05-08T09:37:29;100564.50;;;20.32;51.60
51807;BME280;37865;51.304;9.536;2023-05-08T09:40:18;100562.22;;;20.52;50.63
51807;BME280;37865;51.304;9.536;2023-05-08T09:42:45;100558.13;;;20.82;50.10
51807;BME280;37865;51.304;9.536;2023-05-08T09:45:10;100556.31;;;20.91;48.64
51807;BME280;37865;51.304;9.536;2023-05-08T09:47:36;100557.41;;;20.90;48.20
51807;BME280;37865;51.304;9.536;2023-05-08T09:50:07;100557.00;;;20.83;48.27
51807;BME280;37865;51.304;9.536;2023-05-08T09:52:35;100558.81;;;20.74;48.55
51807;BME280;37865;51.304;9.536;2023-05-08T09:55:10;100559.19;;;20.67;49.17
51807;BME280;37865;51.304;9.536;2023-05-08T09:57:40;100546.63;;;21.07;48.55
51807;BME280;37865;51.304;9.536;2023-05-08T10:00:15;100544.41;;;21.63;47.14
51807;BME280;37865;51.304;9.536;2023-05-08T10:02:53;100538.53;;;22.06;46.90
51807;BME280;37865;51.304;9.536;2023-05-08T10:07:50;100544.34;;;22.18;45.12
51807;BME280;37865;51.304;9.536;2023-05-08T10:10:30;100537.84;;;21.87;44.99
51807;BME280;37865;51.304;9.536;2023-05-08T10:12:56;100539.06;;;21.53;45.42
51807;BME280;37865;51.304;9.536;2023-05-08T10:15:31;100545.03;;;21.33;45.42
51807;BME280;37865;51.304;9.536;2023-05-08T10:18:04;100542.53;;;21.32;45.66
51807;BME280;37865;51.304;9.536;2023-05-08T10:20:31;100532.69;;;21.67;45.78
51807;BME280;37865;51.304;9.536;2023-05-08T10:22:57;100535.84;;;22.01;45.45
51807;BME280;37865;51.304;9.536;2023-05-08T10:25:24;100530.47;;;22.18;44.31
51807;BME280;37865;51.304;9.536;2023-05-08T10:27:54;100526.66;;;22.14;44.09
51807;BME280;37865;51.304;9.536;2023-05-08T10:30:24;100539.84;;;22.08;43.75
51807;BME280;37865;51.304;9.536;2023-05-08T10:32:52;100531.97;;;21.88;44.04
51807;BME280;37865;51.304;9.536;2023-05-08T10:35:22;100533.41;;;21.72;43.92
51807;BME280;37865;51.304;9.536;2023-05-08T10:37:48;100529.47;;;21.73;43.42
51807;BME280;37865;51.304;9.536;2023-05-08T10:40:14;100530.53;;;21.91;43.47
51807;BME280;37865;51.304;9.536;2023-05-08T10:42:46;100530.59;;;21.99;42.79
51807;BME280;37865;51.304;9.536;2023-05-08T10:45:12;100531.44;;;22.00;43.22
51807;BME280;37865;51.304;9.536;2023-05-08T10:47:58;100530.19;;;22.06;42.85
51807;BME280;37865;51.304;9.536;2023-05-08T10:55:54;100524.16;;;22.26;42.24
51807;BME280;37865;51.304;9.536;2023-05-08T11:03:16;100518.25;;;22.63;41.39
51807;BME280;37865;51.304;9.536;2023-05-08T11:05:47;100510.03;;;22.80;41.79
51807;BME280;37865;51.304;9.536;2023-05-08T11:08:17;100502.16;;;23.04;41.14
51807;BME280;37865;51.304;9.536;2023-05-08T11:10:46;100509.72;;;23.35;40.94
51807;BME280;37865;51.304;9.536;2023-05-08T11:13:15;100503.88;;;23.53;40.51
51807;BME280;37865;51.304;9.536;2023-05-08T11:15:41;100505.41;;;23.68;40.59
51807;BME280;37865;51.304;9.536;2023-05-08T11:18:15;100497.06;;;23.76;39.78
51807;BME280;37865;51.304;9.536;2023-05-08T11:21:00;100498.34;;;23.79;39.24
51807;BME280;37865;51.304;9.536;2023-05-08T11:23:34;100494.44;;;23.80;39.22
51807;BME280;37865;51.304;9.536;2023-05-08T11:28:39;100492.50;;;23.89;38.82
51807;BME280;37865;51.304;9.536;2023-05-08T11:31:07;100487.88;;;23.76;39.08
51807;BME280;37865;51.304;9.536;2023-05-08T11:33:34;100491.28;;;23.56;39.29
51807;BME280;37865;51.304;9.536;2023-05-08T11:36:13;100493.97;;;23.86;38.81
51807;BME280;37865;51.304;9.536;2023-05-08T11:38:39;100491.34;;;23.90;38.80
51807;BME280;37865;51.304;9.536;2023-05-08T11:41:09;100488.22;;;23.74;38.51
51807;BME280;37865;51.304;9.536;2023-05-08T11:46:16;100488.03;;;23.71;38.59
51807;BME280;37865;51.304;9.536;2023-05-08T11:48:43;100480.09;;;23.39;38.30
51807;BME280;37865;51.304;9.536;2023-05-08T11:51:09;100475.47;;;23.34;39.00
51807;BME280;37865;51.304;9.536;2023-05-08T11:53:35;100481.16;;;23.29;38.07
51807;BME280;37865;51.304;9.536;2023-05-08T11:56:02;100482.81;;;23.30;38.24
51807;BME280;37865;51.304;9.536;2023-05-08T11:58:27;100478.97;;;23.48;37.68
51807;BME280;37865;51.304;9.536;2023-05-08T12:00:53;100478.03;;;23.70;37.32
51807;BME280;37865;51.304;9.536;2023-05-08T12:03:21;100487.09;;;23.92;37.39
51807;BME280;37865;51.304;9.536;2023-05-08T12:05:48;100491.22;;;24.21;36.24
51807;BME280;37865;51.304;9.536;2023-05-08T12:08:15;100486.81;;;24.37;36.88
51807;BME280;37865;51.304;9.536;2023-05-08T12:10:52;100484.03;;;24.37;37.05
51807;BME280;37865;51.304;9.536;2023-05-08T12:13:18;100488.94;;;24.31;36.80
51807;BME280;37865;51.304;9.536;2023-05-08T12:15:45;100475.94;;;24.69;36.68
51807;BME280;37865;51.304;9.536;2023-05-08T12:18:12;100481.78;;;25.40;35.69
51807;BME280;37865;51.304;9.536;2023-05-08T12:20:37;100474.59;;;25.68;34.66
51807;BME280;37865;51.304;9.536;2023-05-08T12:23:03;100471.66;;;25.65;35.20
51807;BME280;37865;51.304;9.536;2023-05-08T12:25:28;100468.28;;;26.00;34.67
51807;BME280;37865;51.304;9.536;2023-05-08T12:27:54;100464.31;;;26.01;33.85
51807;BME280;37865;51.304;9.536;2023-05-08T12:30:19;100471.31;;;25.66;34.32
51807;BME280;37865;51.304;9.536;2023-05-08T12:32:45;100463.72;;;25.96;34.38
51807;BME280;37865;51.304;9.536;2023-05-08T12:35:12;100465.94;;;26.32;33.38
51807;BME280;37865;51.304;9.536;2023-05-08T12:37:37;100457.41;;;26.28;33.77
51807;BME280;37865;51.304;9.536;2023-05-08T12:40:04;100459.47;;;26.52;33.20
51807;BME280;37865;51.304;9.536;2023-05-08T12:42:49;100459.28;;;27.01;33.56
51807;BME280;37865;51.304;9.536;2023-05-08T12:45:26;100449.53;;;27.56;32.42
51807;BME280;37865;51.304;9.536;2023-05-08T12:47:53;100452.47;;;27.71;32.13
51807;BME280;37865;51.304;9.536;2023-05-08T12:50:22;100445.13;;;28.19;30.97
51807;BME280;37865;51.304;9.536;2023-05-08T12:52:52;100443.75;;;28.13;31.36
51807;BME280;37865;51.304;9.536;2023-05-08T12:55:30;100439.25;;;28.24;31.23
51807;BME280;37865;51.304;9.536;2023-05-08T12:58:07;100438.16;;;28.01;31.12
51807;BME280;37865;51.304;9.536;2023-05-08T13:03:07;100431.22;;;27.34;32.21
51807;BME280;37865;51.304;9.536;2023-05-08T13:05:40;100436.19;;;27.89;32.14
51807;BME280;37865;51.304;9.536;2023-05-08T13:09:19;100439.16;;;29.07;30.95
51807;BME280;37865;51.304;9.536;2023-05-08T13:17:02;100426.84;;;29.58;29.82
51807;BME280;37865;51.304;9.536;2023-05-08T13:19:27;100423.66;;;29.60;29.73
51807;BME280;37865;51.304;9.536;2023-05-08T13:44:09;100413.69;;;30.54;28.18
51807;BME280;37865;51.304;9.536;2023-05-08T14:50:12;100358.00;;;31.35;26.80
51807;BME280;37865;51.304;9.536;2023-05-08T14:52:37;100356.78;;;30.64;26.81
51807;BME280;37865;51.304;9.536;2023-05-08T14:55:03;100358.25;;;30.36;27.09
51807;BME280;37865;51.304;9.536;2023-05-08T14:57:28;100348.38;;;30.45;27.09
51807;BME280;37865;51.304;9.536;2023-05-08T14:59:54;100348.63;;;30.82;27.06
51807;BME280;37865;51.304;9.536;2023-05-08T15:02:22;100341.50;;;30.65;27.67
51807;BME280;37865;51.304;9.536;2023-05-08T15:04:47;100344.06;;;30.51;28.19
51807;BME280;37865;51.304;9.536;2023-05-08T15:07:12;100352.19;;;31.24;27.10
51807;BME280;37865;51.304;9.536;2023-05-08T15:09:37;100346.19;;;31.82;26.63
51807;BME280;37865;51.304;9.536;2023-05-08T15:12:03;100361.47;;;31.02;27.13
51807;BME280;37865;51.304;9.536;2023-05-08T15:14:28;100349.31;;;30.53;27.69
51807;BME280;37865;51.304;9.536;2023-05-08T15:16:54;100357.06;;;30.37;28.16
51807;BME280;37865;51.304;9.536;2023-05-08T15:19:19;100353.75;;;30.12;28.13
51807;BME280;37865;51.304;9.536;2023-05-08T15:21:44;100355.56;;;29.31;28.90